Time;durP1;ratioP1;P1;durP2;ratioP2;P2;SDS_P1;SDS_P2;PMS_P1;PMS_P2;Temp;Humidity;BMP_temperature;BMP_pressure;BME280_temperature;BME280_humidity;BME280_pressure;Samples;Min_cycle;Max_cycle;Signal;HPM_P1;HPM_P2
2022/05/04 00:01:18;;;;;;;16.80;11.05;;;;;;;9.70;58.79;100353.19;2083709;85;32779;-58
2022/05/04 00:04:20;;;;;;;17.65;11.48;;;;;;;9.75;58.95;100353.00;2083478;85;30259;-60
2022/05/04 00:07:22;;;;;;;20.85;10.90;;;;;;;9.79;59.15;100349.70;2083502;85;27614;-62
2022/05/04 00:10:25;;;;;;;15.45;11.50;;;;;;;9.80;59.05;100346.95;2083446;85;29525;-62
2022/05/04 00:13:31;;;;;;;21.82;11.50;;;;;;;9.82;59.04;100356.27;2083706;85;31126;-59
2022/05/04 00:16:33;;;;;;;16.42;10.53;;;;;;;9.83;59.14;100348.64;2083446;85;33737;-57
2022/05/04 00:19:36;;;;;;;16.50;10.58;;;;;;;9.81;58.85;100343.33;2083412;85;30249;-58
2022/05/04 00:22:38;;;;;;;17.67;10.43;;;;;;;9.82;58.73;100344.22;2083917;85;27708;-56
2022/05/04 00:25:39;;;;;;;20.60;10.88;;;;;;;9.83;58.75;100348.16;2083476;85;28703;-58
2022/05/04 00:28:41;;;;;;;18.42;9.55;;;;;;;9.87;58.76;100352.88;2083688;85;32234;-57
2022/05/04 00:31:43;;;;;;;14.68;10.18;;;;;;;9.91;58.72;100354.48;2083594;85;32963;-60
2022/05/04 00:34:45;;;;;;;15.63;10.18;;;;;;;9.97;58.56;100346.64;2047556;87;29656;-58
2022/05/04 00:37:47;;;;;;;19.27;11.05;;;;;;;10.01;58.66;100342.89;2083591;85;28361;-60
2022/05/04 00:40:49;;;;;;;14.80;9.90;;;;;;;10.04;58.48;100343.61;2083817;85;29590;-60
2022/05/04 00:43:54;;;;;;;16.23;10.20;;;;;;;10.07;58.35;100339.94;2084667;85;32312;-61
2022/05/04 00:46:56;;;;;;;;;;;;;;;10.10;58.45;100351.81;2087507;85;33192;-59
2022/05/04 00:50:04;;;;;;;17.82;10.05;;;;;;;10.13;58.56;100345.47;2084690;85;29065;-60
2022/05/04 00:53:03;;;;;;;17.77;10.03;;;;;;;10.13;58.44;100351.67;2084789;85;27705;-60
2022/05/04 00:56:05;;;;;;;15.75;9.95;;;;;;;10.16;58.54;100356.89;2084978;85;29112;-58
2022/05/04 00:59:08;;;;;;;15.10;10.25;;;;;;;10.19;58.58;100360.77;2084916;85;31036;-58
2022/05/04 01:02:10;;;;;;;16.42;10.82;;;;;;;10.23;58.38;100359.29;2085023;85;33330;-58
2022/05/04 01:05:13;;;;;;;16.30;10.75;;;;;;;10.27;58.37;100361.74;2084779;85;29855;-58
2022/05/04 01:08:16;;;;;;;17.45;10.93;;;;;;;10.33;58.45;100365.48;2085170;85;27767;-59
2022/05/04 01:11:19;;;;;;;16.30;10.15;;;;;;;10.39;58.55;100375.06;2084601;85;29558;-59
2022/05/04 01:14:21;;;;;;;15.85;9.90;;;;;;;10.43;58.69;100375.28;2084637;85;31132;-59
2022/05/04 01:17:24;;;;;;;18.87;9.88;;;;;;;10.47;58.69;100370.19;2084524;85;34215;-58
2022/05/04 01:20:26;;;;;;;16.40;11.20;;;;;;;10.51;58.99;100372.23;2084631;85;29865;-57
2022/05/04 01:23:29;;;;;;;19.65;10.48;;;;;;;10.55;59.15;100372.98;2085009;85;27766;-57
2022/05/04 01:26:31;;;;;;;20.62;11.55;;;;;;;10.57;59.23;100374.62;2084600;85;30805;-57
2022/05/04 01:29:33;;;;;;;17.40;10.75;;;;;;;10.60;59.18;100373.15;2084601;85;31893;-57
2022/05/04 01:32:35;;;;;;;18.45;10.32;;;;;;;10.62;59.15;100375.73;2084828;85;33701;-59
2022/05/04 01:35:37;;;;;;;15.20;10.13;;;;;;;10.64;59.09;100369.39;2084979;85;30203;-58
2022/05/04 01:38:39;;;;;;;17.50;11.03;;;;;;;10.67;59.61;100368.84;2084677;85;27746;-57
2022/05/04 01:45:01;;;;;;;22.15;11.15;;;;;;;10.72;59.15;100371.69;2084711;85;31481;-59
2022/05/04 01:48:03;;;;;;;17.85;11.15;;;;;;;10.76;58.99;100375.08;2085122;85;33359;-57
2022/05/04 01:51:05;;;;;;;20.72;10.68;;;;;;;10.79;59.02;100373.59;2084910;85;29032;-59
2022/05/04 01:54:08;;;;;;;14.53;9.63;;;;;;;10.80;59.03;100369.97;2084838;85;27782;-58
2022/05/04 01:57:13;;;;;;;13.22;9.38;;;;;;;10.84;58.94;100367.51;2097167;84;29502;-61
2022/05/04 02:00:16;;;;;;;17.02;10.55;;;;;;;10.87;58.75;100369.19;2084593;85;32385;-60
2022/05/04 02:03:18;;;;;;;17.55;9.98;;;;;;;10.89;58.45;100370.84;2084889;85;32975;-57
2022/05/04 02:06:20;;;;;;;15.72;10.00;;;;;;;10.89;58.50;100378.88;2096824;84;29886;-59
2022/05/04 02:09:23;;;;;;;16.23;9.18;;;;;;;10.89;58.63;100373.52;2085291;85;27681;-57
2022/05/04 02:12:27;;;;;;;17.45;10.75;;;;;;;10.90;58.85;100378.42;2097102;84;29747;-57
2022/05/04 02:15:29;;;;;;;18.20;9.53;;;;;;;10.89;58.94;100382.05;2084975;85;32376;-57
2022/05/04 02:18:33;;;;;;;15.35;10.23;;;;;;;10.90;58.93;100387.80;2097123;84;32450;-57
2022/05/04 02:21:36;;;;;;;16.60;10.10;;;;;;;10.91;58.67;100387.72;2084909;85;29076;-56
2022/05/04 02:24:38;;;;;;;13.45;9.45;;;;;;;10.94;58.75;100388.91;2084947;85;27745;-56
2022/05/04 02:27:39;;;;;;;16.37;10.50;;;;;;;10.97;58.83;100393.72;2096843;84;29877;-57
2022/05/04 02:30:41;;;;;;;15.50;9.80;;;;;;;10.98;58.82;100385.59;2085442;85;31660;-57
2022/05/04 02:33:44;;;;;;;18.75;9.83;;;;;;;11.00;59.12;100387.73;2097281;84;34231;-56
2022/05/04 02:40:09;;;;;;;15.32;10.38;;;;;;;11.06;59.20;100392.80;2084911;85;28225;-57
2022/05/04 02:43:12;;;;;;;22.37;9.75;;;;;;;11.05;59.23;100391.05;2084599;85;28654;-57
2022/05/04 02:46:17;;;;;;;15.83;10.15;;;;;;;11.06;59.29;100399.49;2085173;85;32066;-57
2022/05/04 02:49:18;;;;;;;;;;;;;;;11.04;59.28;100398.70;2087390;85;33747;-59
2022/05/04 02:52:20;;;;;;;16.25;9.90;;;;;;;11.04;59.45;100401.84;2084625;85;29416;-57
2022/05/04 02:55:22;;;;;;;17.37;9.95;;;;;;;11.02;59.44;100402.38;2084781;85;27676;-61
2022/05/04 02:58:23;;;;;;;13.65;9.15;;;;;;;11.03;59.59;100404.12;2084957;85;29183;-62
2022/05/04 03:04:46;;;;;;;16.25;10.35;;;;;;;11.01;59.66;100404.21;2084677;85;34252;-63
2022/05/04 03:07:48;;;;;;;15.00;9.83;;;;;;;10.99;59.50;100399.87;2084559;85;30186;-65
2022/05/04 03:14:10;;;;;;;21.97;10.32;;;;;;;10.87;59.39;100396.84;2084576;85;29676;-62
2022/05/04 03:17:12;;;;;;;16.12;10.28;;;;;;;10.76;59.27;100395.17;2084499;85;31158;-57
2022/05/04 03:20:15;;;;;;;21.12;11.08;;;;;;;10.66;59.33;100399.25;2084496;85;34189;-57
2022/05/04 03:23:16;;;;;;;17.60;10.80;;;;;;;10.56;59.36;100405.03;2084888;85;29812;-57
2022/05/04 03:26:18;;;;;;;20.55;10.95;;;;;;;10.50;59.43;100405.35;2084702;85;28167;-60
2022/05/04 03:29:20;;;;;;;16.07;9.43;;;;;;;10.45;59.66;100404.20;2085200;85;29249;-57
2022/05/04 03:32:22;;;;;;;18.02;10.40;;;;;;;10.42;59.79;100407.05;2084929;85;31964;-58
2022/05/04 03:35:24;;;;;;;17.90;10.30;;;;;;;10.41;60.00;100408.45;2084917;85;34038;-60
2022/05/04 03:38:26;;;;;;;18.17;10.58;;;;;;;10.41;60.01;100408.00;2085034;85;29534;-58
2022/05/04 03:41:28;;;;;;;16.37;10.43;;;;;;;10.42;60.20;100408.39;2084779;85;27629;-59
2022/05/04 03:44:31;;;;;;;24.25;12.10;;;;;;;10.44;60.25;100408.31;2083519;85;29571;-58
2022/05/04 03:47:33;;;;;;;21.52;11.15;;;;;;;10.45;60.25;100409.56;2083486;85;32295;-60
2022/05/04 03:50:35;;;;;;;19.87;11.12;;;;;;;10.45;60.28;100411.39;2083387;85;33843;-59
2022/05/04 03:53:38;;;;;;;18.25;10.68;;;;;;;10.45;60.17;100419.42;2083612;85;30539;-61
2022/05/04 03:56:40;;;;;;;21.65;12.18;;;;;;;10.45;60.29;100416.26;2083913;85;27719;-59
2022/05/04 03:59:43;;;;;;;18.50;11.83;;;;;;;10.45;60.14;100421.61;2083317;85;29546;-60
2022/05/04 04:02:45;;;;;;;19.07;10.98;;;;;;;10.44;60.17;100421.70;2083812;85;31664;-57
2022/05/04 04:05:47;;;;;;;20.30;11.45;;;;;;;10.44;60.17;100431.92;2083603;85;33941;-63
2022/05/04 04:08:50;;;;;;;17.70;11.45;;;;;;;10.46;60.19;100431.88;2083889;85;29061;-58
2022/05/04 04:11:52;;;;;;;20.02;10.98;;;;;;;10.51;60.27;100426.30;2083591;85;27644;-62
2022/05/04 04:15:00;;;;;;;18.67;11.35;;;;;;;10.59;60.48;100433.02;2083777;85;29578;-60
2022/05/04 04:18:06;;;;;;;25.55;10.28;;;;;;;10.70;60.59;100433.86;2083893;85;31235;-61
2022/05/04 04:24:29;;;;;;;17.32;9.40;;;;;;;10.93;60.55;100429.17;2083888;85;29666;-60
2022/05/04 04:27:35;;;;;;;22.87;10.93;;;;;;;11.10;60.73;100430.55;2055691;85;27832;-63
2022/05/04 04:30:38;;;;;;;15.55;10.20;;;;;;;11.26;60.68;100433.80;2083851;85;29473;-59
2022/05/04 04:33:41;;;;;;;18.57;10.45;;;;;;;11.44;60.51;100435.16;2083803;85;31080;-59
2022/05/04 04:36:43;;;;;;;21.68;11.28;;;;;;;11.59;59.84;100429.48;2083788;85;34115;-60
2022/05/04 04:39:45;;;;;;;24.27;11.25;;;;;;;11.70;59.36;100430.66;2083658;85;29864;-58
2022/05/04 04:42:46;;;;;;;21.97;11.08;;;;;;;11.83;58.91;100437.58;2084219;85;27680;-59
2022/05/04 04:45:50;;;;;;;17.20;10.10;;;;;;;11.97;58.45;100435.52;2085488;85;29342;-58
2022/05/04 04:48:51;;;;;;;16.07;9.50;;;;;;;12.08;57.99;100445.72;2084995;85;32047;-60
2022/05/04 04:51:54;;;;;;;20.52;11.30;;;;;;;12.24;57.61;100436.83;2084690;85;34325;-59
2022/05/04 04:54:56;;;;;;;22.93;10.50;;;;;;;12.46;57.45;100433.82;2085031;85;30697;-59
2022/05/04 04:57:58;;;;;;;19.05;10.32;;;;;;;13.07;57.49;100428.62;2084869;85;27731;-58
2022/05/04 05:01:00;;;;;;;22.32;9.68;;;;;;;13.81;56.66;100435.02;2084745;85;30070;-59
2022/05/04 05:04:01;;;;;;;22.17;9.43;;;;;;;14.39;54.40;100435.52;2084955;85;32313;-59
2022/05/04 05:07:04;;;;;;;16.85;9.43;;;;;;;15.01;54.90;100439.19;2084691;85;34193;-59
2022/05/04 05:10:07;;;;;;;16.07;10.30;;;;;;;15.66;53.54;100438.00;2084693;85;30524;-61
2022/05/04 05:13:09;;;;;;;20.02;10.18;;;;;;;16.19;52.96;100437.97;2085083;85;28027;-61
2022/05/04 05:16:11;;;;;;;21.02;10.78;;;;;;;16.78;52.23;100441.84;2084652;85;29540;-59
2022/05/04 05:19:14;;;;;;;17.60;11.00;;;;;;;17.44;52.26;100441.48;2084702;85;31520;-59
2022/05/04 05:22:17;;;;;;;19.20;11.25;;;;;;;18.03;50.63;100444.25;2084917;85;32985;-59
2022/05/04 05:25:19;;;;;;;24.60;11.40;;;;;;;18.42;50.17;100447.48;2084991;85;30334;-59
2022/05/04 05:28:21;;;;;;;14.60;10.35;;;;;;;18.90;49.62;100450.89;2084839;85;28307;-59
2022/05/04 05:31:32;;;;;;;17.55;10.55;;;;;;;19.28;46.93;100448.20;2084959;85;28914;-60
2022/05/04 05:34:44;;;;;;;15.00;10.50;;;;;;;19.52;46.78;100448.48;2084746;85;31087;-59
2022/05/04 05:38:04;;;;;;;16.87;11.00;;;;;;;19.88;46.85;100450.42;2062203;85;32976;-59
2022/05/04 05:41:19;;;;;;;15.03;10.85;;;;;;;20.04;45.51;100449.45;2082115;85;27684;-59
2022/05/04 05:44:41;;;;;;;20.00;11.28;;;;;;;20.28;45.15;100450.98;2053027;85;27743;-59
2022/05/04 05:47:45;;;;;;;21.05;12.85;;;;;;;20.57;44.83;100450.28;2091863;85;28234;-59
2022/05/04 05:50:48;;;;;;;20.68;10.70;;;;;;;20.95;44.47;100450.55;2094135;84;31399;-60
2022/05/04 05:53:50;;;;;;;18.05;11.33;;;;;;;21.34;44.15;100449.73;2093939;85;32994;-61
2022/05/04 05:56:52;;;;;;;15.10;10.08;;;;;;;21.72;43.43;100450.77;2094105;84;29595;-61
2022/05/04 05:59:59;;;;;;;17.60;10.10;;;;;;;22.09;42.97;100451.32;2093855;85;27699;-61
2022/05/04 06:03:03;;;;;;;17.17;11.00;;;;;;;22.48;42.14;100457.69;2093894;85;29060;-60
2022/05/04 06:06:06;;;;;;;17.85;10.13;;;;;;;22.88;41.59;100457.34;2094175;85;31073;-60
2022/05/04 06:09:09;;;;;;;19.75;10.98;;;;;;;23.27;40.48;100453.52;2094407;84;33126;-61
2022/05/04 06:12:12;;;;;;;16.82;11.45;;;;;;;23.70;40.07;100457.84;2093846;84;29411;-60
2022/05/04 06:15:17;;;;;;;15.78;11.38;;;;;;;23.52;38.92;100457.87;2093833;84;27767;-61
2022/05/04 06:18:19;;;;;;;19.23;11.25;;;;;;;23.32;39.38;100455.81;2093966;85;28666;-60
2022/05/04 06:21:21;;;;;;;23.10;11.12;;;;;;;23.34;39.01;100457.36;2093719;85;33194;-61
2022/05/04 06:24:26;;;;;;;14.05;10.40;;;;;;;23.46;38.23;100451.65;2093775;85;33951;-60
2022/05/04 06:27:29;;;;;;;16.77;10.63;;;;;;;23.34;37.83;100457.85;2094203;84;29315;-61
2022/05/04 06:34:10;;;;;;;25.02;10.88;;;;;;;22.75;37.97;100460.95;2093769;85;29911;-58
2022/05/04 06:37:20;;;;;;;18.12;11.55;;;;;;;22.52;37.54;100456.39;2093729;85;31943;-60
2022/05/04 06:40:31;;;;;;;15.63;9.90;;;;;;;22.71;37.68;100453.57;2093967;85;33070;-60
2022/05/04 06:43:55;;;;;;;28.65;11.85;;;;;;;23.19;37.45;100456.16;2078704;84;29344;-61
2022/05/04 06:47:02;;;;;;;19.00;10.18;;;;;;;23.76;36.86;100451.75;2042057;87;27633;-60
2022/05/04 06:50:05;;;;;;;19.20;12.23;;;;;;;24.40;36.82;100455.61;2077856;85;29546;-62
2022/05/04 06:53:07;;;;;;;24.05;11.25;;;;;;;24.77;36.39;100455.47;2078422;85;31847;-64
2022/05/04 06:56:10;;;;;;;23.05;11.93;;;;;;;25.04;34.98;100452.99;2077888;85;33451;-61
2022/05/04 06:59:12;;;;;;;17.75;10.68;;;;;;;25.03;34.55;100452.64;2078113;85;30126;-61
2022/05/04 07:02:14;;;;;;;14.83;11.00;;;;;;;25.10;34.87;100453.67;2078250;85;27783;-65
2022/05/04 07:05:17;;;;;;;18.00;11.22;;;;;;;25.46;34.16;100450.67;2078131;85;29636;-61
2022/05/04 07:08:19;;;;;;;14.20;10.63;;;;;;;25.53;34.29;100449.48;2077763;85;32251;-60
2022/05/04 07:11:21;;;;;;;13.72;10.45;;;;;;;25.96;34.26;100448.45;2078091;85;32992;-59
2022/05/04 07:14:23;;;;;;;17.02;10.65;;;;;;;26.27;32.37;100444.45;2077765;85;30625;-59
2022/05/04 07:17:26;;;;;;;19.45;11.45;;;;;;;25.94;32.68;100447.23;2078177;85;27620;-59
2022/05/04 07:20:29;;;;;;;15.37;10.03;;;;;;;26.18;32.46;100442.77;2078344;85;28706;-61
2022/05/04 07:23:31;;;;;;;15.48;10.55;;;;;;;26.38;32.73;100447.34;2077783;85;32304;-60
2022/05/04 07:26:33;;;;;;;16.97;10.68;;;;;;;26.74;31.95;100450.11;2077780;85;34165;-60
2022/05/04 07:29:36;;;;;;;17.12;10.85;;;;;;;26.86;31.25;100447.36;2078252;85;29674;-60
2022/05/04 07:32:39;;;;;;;14.80;9.98;;;;;;;26.83;31.27;100449.09;2078032;85;27628;-59
2022/05/04 07:35:41;;;;;;;14.55;10.63;;;;;;;27.01;31.80;100449.34;2078062;85;28639;-59
2022/05/04 07:38:43;;;;;;;22.13;10.55;;;;;;;27.26;31.20;100449.51;2078220;85;31036;-60
2022/05/04 07:45:09;;;;;;;17.48;10.70;;;;;;;27.30;30.87;100459.66;2082777;85;30507;-59
2022/05/04 07:48:12;;;;;;;15.60;10.95;;;;;;;27.39;30.50;100464.05;2084909;85;27764;-61
2022/05/04 07:51:14;;;;;;;16.52;9.33;;;;;;;27.52;30.51;100452.47;2084948;85;29893;-61
2022/05/04 07:54:16;;;;;;;14.07;9.95;;;;;;;27.70;30.18;100461.77;2084480;85;32505;-61
2022/05/04 07:57:19;;;;;;;15.78;8.63;;;;;;;28.00;29.77;100461.83;2084924;85;33371;-60
2022/05/04 08:07:03;;;;;;;16.05;9.05;;;;;;;28.26;29.04;100460.59;2084650;85;29897;-60
2022/05/04 08:10:06;;;;;;;15.43;8.55;;;;;;;28.06;28.91;100460.22;2084758;85;31931;-59
2022/05/04 08:13:10;;;;;;;15.65;8.95;;;;;;;28.14;28.73;100455.19;2084830;85;33054;-60
2022/05/04 08:16:13;;;;;;;14.13;8.43;;;;;;;28.33;28.87;100460.69;2085116;85;30175;-59
2022/05/04 08:19:15;;;;;;;11.45;9.00;;;;;;;28.65;27.98;100466.31;2084872;85;27711;-59
2022/05/04 08:22:17;;;;;;;11.57;8.50;;;;;;;28.57;27.72;100466.94;2084636;85;28897;-59
2022/05/04 08:25:20;;;;;;;12.23;7.60;;;;;;;28.38;27.63;100469.22;2084758;85;31787;-60
2022/05/04 08:28:21;;;;;;;11.60;8.45;;;;;;;28.42;28.17;100464.20;2084595;85;33392;-59
2022/05/04 08:31:23;;;;;;;11.25;8.55;;;;;;;28.45;27.34;100463.30;2085067;85;30476;-59
2022/05/04 08:34:26;;;;;;;11.75;8.35;;;;;;;28.44;27.59;100470.38;2084854;85;27636;-59
2022/05/04 08:37:28;;;;;;;12.80;6.72;;;;;;;28.48;27.88;100473.07;2084973;85;28699;-60
2022/05/04 08:40:29;;;;;;;13.10;7.67;;;;;;;28.56;27.40;100466.09;2084970;85;32218;-60
2022/05/04 08:43:32;;;;;;;12.35;8.63;;;;;;;28.58;27.01;100466.77;2083976;84;34390;-60
2022/05/04 08:46:41;;;;;;;12.75;7.92;;;;;;;28.44;26.56;100462.95;2097217;84;29375;-60
2022/05/04 08:49:45;;;;;;;11.35;6.83;;;;;;;28.14;26.73;100468.95;2085124;85;27678;-60
2022/05/04 08:52:53;;;;;;;;;;;;;;;27.66;25.82;100471.97;2099455;84;29894;-59
2022/05/04 08:55:55;;;;;;;8.38;7.15;;;;;;;27.34;26.19;100469.77;2097243;84;32202;-59
2022/05/04 08:58:57;;;;;;;14.47;8.25;;;;;;;27.14;27.06;100471.06;2024955;86;33844;-59
2022/05/04 09:01:59;;;;;;;10.00;7.65;;;;;;;27.03;27.05;100472.02;2084590;85;30534;-59
2022/05/04 09:05:26;;;;;;;15.00;7.25;;;;;;;26.89;26.58;100470.34;2097549;84;27208;-60
2022/05/04 09:08:28;;;;;;;10.28;6.92;;;;;;;26.73;26.85;100471.27;2084915;85;28825;-60
2022/05/04 09:11:32;;;;;;;8.98;6.22;;;;;;;26.63;27.04;100466.50;2096868;84;32254;-59
2022/05/04 09:14:35;;;;;;;8.25;6.37;;;;;;;26.44;26.65;100464.50;2084707;85;33053;-59
2022/05/04 09:17:41;;;;;;;13.72;6.62;;;;;;;26.34;27.20;100466.58;2097203;84;30144;-60
2022/05/04 09:20:53;;;;;;;7.33;6.10;;;;;;;26.49;27.27;100461.22;2085105;85;27696;-60
2022/05/04 09:23:52;;;;;;;9.43;6.78;;;;;;;26.35;27.08;100460.05;2095347;84;28650;-58
2022/05/04 09:26:58;;;;;;;10.32;6.33;;;;;;;26.09;27.08;100463.34;2084877;85;31239;-59
2022/05/04 09:30:01;;;;;;;11.83;7.12;;;;;;;25.77;27.44;100464.24;2097162;84;33005;-59
2022/05/04 09:33:07;;;;;;;10.28;7.12;;;;;;;25.67;27.29;100471.27;2084882;85;30127;-59
2022/05/04 09:36:11;;;;;;;10.48;6.67;;;;;;;25.48;27.30;100460.13;2097226;84;27624;-59
2022/05/04 09:45:58;;;;;;;10.40;6.65;;;;;;;25.56;27.33;100455.16;2061478;85;34158;-59
2022/05/04 09:49:05;;;;;;;7.80;5.85;;;;;;;25.30;27.40;100458.36;2083294;85;30790;-59
2022/05/04 09:52:08;;;;;;;9.35;6.60;;;;;;;25.16;27.50;100463.10;2083936;85;27677;-59
2022/05/04 09:55:22;;;;;;;7.08;5.83;;;;;;;24.96;27.66;100455.69;2083294;85;28528;-59
2022/05/04 09:58:27;;;;;;;9.63;6.80;;;;;;;24.75;27.33;100461.09;2083409;85;32236;-61
2022/05/04 10:01:29;;;;;;;8.00;5.92;;;;;;;24.43;27.59;100453.05;2083363;85;33761;-59
2022/05/04 10:04:38;;;;;;;14.63;6.65;;;;;;;24.36;27.69;100457.48;2083570;85;30083;-60
2022/05/04 10:07:51;;;;;;;10.78;6.87;;;;;;;24.30;28.04;100453.52;2083419;85;27704;-59
2022/05/04 10:10:57;;;;;;;9.20;6.70;;;;;;;24.32;28.20;100450.11;2083105;85;27655;-59
2022/05/04 10:14:03;;;;;;;10.75;6.08;;;;;;;24.30;27.74;100449.41;2079067;85;31061;-62
2022/05/04 10:17:15;;;;;;;10.78;6.08;;;;;;;24.16;28.06;100449.48;2083715;85;33839;-59
2022/05/04 10:20:31;;;;;;;10.60;5.60;;;;;;;24.10;28.09;100444.64;2083230;85;30694;-59
2022/05/04 10:23:38;;;;;;;7.92;5.17;;;;;;;24.15;28.59;100442.30;2083012;85;27813;-59
2022/05/04 10:26:44;;;;;;;8.15;5.67;;;;;;;24.23;28.34;100445.09;2083007;85;29474;-62
2022/05/04 10:33:32;;;;;;;10.65;5.72;;;;;;;24.48;28.21;100436.99;2062502;85;33554;-61
2022/05/04 10:36:34;;;;;;;5.75;5.17;;;;;;;24.47;28.10;100433.91;2046974;86;30051;-61
2022/05/04 10:39:37;;;;;;;7.50;5.40;;;;;;;24.42;28.04;100430.79;2056310;85;27691;-60
2022/05/04 10:43:02;;;;;;;6.25;5.53;;;;;;;24.49;28.00;100428.28;2079261;85;29422;-59
2022/05/04 10:46:16;;;;;;;10.78;4.87;;;;;;;24.34;27.65;100426.13;2083406;85;31043;-65
2022/05/04 10:49:19;;;;;;;5.78;4.67;;;;;;;24.09;27.60;100425.13;2083670;85;33980;-60
2022/05/04 10:52:23;;;;;;;6.73;5.10;;;;;;;23.81;27.51;100422.05;2079465;85;29395;-61
2022/05/04 10:55:31;;;;;;;12.43;4.62;;;;;;;23.57;27.91;100414.51;2083276;85;27856;-64
2022/05/04 10:58:42;;;;;;;5.75;4.28;;;;;;;23.48;28.17;100416.80;2081250;85;28652;-61
2022/05/04 11:01:48;;;;;;;9.18;5.12;;;;;;;23.34;28.18;100414.11;2083498;85;31163;-61
2022/05/04 11:04:54;;;;;;;6.03;4.87;;;;;;;23.20;28.14;100405.45;2083178;85;34154;-60
2022/05/04 11:07:58;;;;;;;5.75;5.10;;;;;;;23.13;28.61;100411.17;2083470;85;29329;-58
2022/05/04 11:11:00;;;;;;;11.20;4.93;;;;;;;23.12;28.78;100413.55;2083862;85;27752;-59
2022/05/04 11:14:04;;;;;;;7.70;5.28;;;;;;;23.13;29.09;100406.20;2083074;85;29953;-59
2022/05/04 11:17:16;;;;;;;11.40;4.83;;;;;;;23.14;28.93;100409.28;2083792;85;31037;-58
2022/05/04 11:20:23;;;;;;;8.03;5.10;;;;;;;23.19;28.73;100401.48;2083485;85;32955;-63
2022/05/04 11:23:26;;;;;;;7.47;4.83;;;;;;;23.31;28.72;100403.52;2083308;85;29735;-64
2022/05/04 11:26:38;;;;;;;6.25;4.20;;;;;;;23.34;28.88;100401.31;2083595;85;27652;-64
2022/05/04 11:29:41;;;;;;;7.25;5.30;;;;;;;23.57;29.34;100402.20;2083160;85;29121;-67
2022/05/04 11:32:44;;;;;;;6.42;4.72;;;;;;;23.77;28.99;100404.72;2083339;85;32213;-64
2022/05/04 11:35:54;;;;;;;6.33;4.75;;;;;;;23.95;29.22;100399.21;2083221;85;33524;-67
2022/05/04 11:38:57;;;;;;;6.17;4.50;;;;;;;24.14;29.31;100396.78;2083366;85;29416;-65
2022/05/04 11:42:05;;;;;;;7.45;5.40;;;;;;;24.36;29.05;100398.61;2083445;85;27712;-60
2022/05/04 11:45:09;;;;;;;6.75;5.30;;;;;;;24.46;28.41;100396.58;2090784;84;28683;-59
2022/05/04 11:48:12;;;;;;;5.97;5.05;;;;;;;24.45;28.51;100397.61;2108666;84;32106;-59
2022/05/04 11:51:17;;;;;;;8.13;5.42;;;;;;;24.36;27.97;100392.60;2108560;84;34124;-62
2022/05/04 11:54:19;;;;;;;9.05;5.50;;;;;;;24.12;27.64;100397.45;2108315;84;30236;-65
2022/05/04 11:57:22;;;;;;;5.65;4.83;;;;;;;23.95;27.81;100395.95;2108784;84;28336;-64
2022/05/04 12:00:25;;;;;;;9.23;5.08;;;;;;;23.78;27.74;100395.48;2108406;84;29896;-59
2022/05/04 12:03:29;;;;;;;5.00;3.72;;;;;;;23.76;28.42;100391.56;2108846;84;31673;-59
2022/05/04 12:06:33;;;;;;;6.55;5.40;;;;;;;23.58;27.78;100388.00;2108851;84;33837;-65
2022/05/04 12:09:35;;;;;;;5.15;4.03;;;;;;;23.30;27.78;100389.50;2108975;84;29334;-64
2022/05/04 12:12:38;;;;;;;8.45;4.72;;;;;;;23.08;28.03;100386.17;2085329;84;27592;-59
2022/05/04 12:15:40;;;;;;;6.33;4.35;;;;;;;22.99;28.30;100382.50;2108754;84;29457;-63
2022/05/04 12:18:43;;;;;;;6.58;4.55;;;;;;;22.94;28.75;100386.20;2062710;84;32295;-61
2022/05/04 12:21:46;;;;;;;6.10;4.40;;;;;;;22.91;28.72;100383.80;2108789;84;32963;-64
2022/05/04 12:24:49;;;;;;;9.15;4.87;;;;;;;22.87;28.83;100377.77;2085705;84;29415;-59
2022/05/04 12:27:53;;;;;;;6.00;4.10;;;;;;;22.83;28.79;100379.11;2108835;84;27707;-65
2022/05/04 12:34:18;;;;;;;9.90;4.65;;;;;;;22.99;29.04;100368.00;2108546;84;32261;-67
2022/05/04 12:37:21;;;;;;;6.62;4.20;;;;;;;23.10;29.00;100368.25;2086852;84;32965;-64
2022/05/04 12:40:24;;;;;;;8.43;4.45;;;;;;;23.07;28.66;100365.33;2108596;84;29892;-64
2022/05/04 12:43:33;;;;;;;6.72;4.10;;;;;;;22.88;28.54;100370.45;2086671;84;27806;-66
2022/05/04 12:46:36;;;;;;;5.65;4.22;;;;;;;22.69;28.75;100365.47;2108726;84;28239;-65
2022/05/04 12:49:38;;;;;;;5.08;4.03;;;;;;;22.61;28.81;100366.23;2108531;84;31344;-59
2022/05/04 12:52:40;;;;;;;5.22;3.83;;;;;;;22.52;29.06;100363.56;2108623;84;33692;-60
2022/05/04 12:59:05;;;;;;;6.53;4.28;;;;;;;22.41;29.21;100357.77;2108746;84;28214;-64
2022/05/04 13:02:07;;;;;;;14.18;5.00;;;;;;;22.43;29.07;100355.78;2108820;84;28812;-65
2022/05/04 13:05:10;;;;;;;5.10;4.25;;;;;;;22.32;29.03;100352.71;2108458;84;31217;-64
2022/05/04 13:08:12;;;;;;;6.35;4.92;;;;;;;22.22;29.37;100350.55;2108697;84;33018;-60
2022/05/04 13:11:18;;;;;;;8.28;4.25;;;;;;;22.14;29.33;100349.94;2108337;84;30529;-63
2022/05/04 13:14:21;;;;;;;11.97;5.17;;;;;;;22.05;29.36;100352.19;2108833;84;28241;-65
2022/05/04 13:17:24;;;;;;;9.35;4.22;;;;;;;22.03;29.69;100345.53;2108389;84;28645;-64
2022/05/04 13:20:27;;;;;;;9.23;4.58;;;;;;;22.02;29.79;100345.17;2108537;84;31882;-63
2022/05/04 13:23:30;;;;;;;6.25;4.42;;;;;;;22.03;30.00;100344.17;2108180;84;35076;-64
2022/05/04 13:26:32;;;;;;;6.70;4.80;;;;;;;22.15;30.04;100336.66;2108485;84;30111;-65
2022/05/04 13:29:35;;;;;;;8.20;4.58;;;;;;;22.21;29.82;100335.19;2108257;84;28030;-64
2022/05/04 13:32:38;;;;;;;4.80;4.28;;;;;;;22.27;29.83;100328.61;2108223;84;29915;-63
2022/05/04 13:35:40;;;;;;;7.47;4.10;;;;;;;22.37;29.94;100329.92;2108652;84;27671;-62
2022/05/04 13:38:42;;;;;;;6.50;3.80;;;;;;;22.45;29.73;100325.94;2105501;84;33785;-64
2022/05/04 13:41:45;;;;;;;6.12;4.60;;;;;;;22.56;30.04;100325.39;2086390;85;29741;-63
2022/05/04 13:44:47;;;;;;;7.58;4.47;;;;;;;22.63;29.53;100327.00;2086280;85;27700;-66
2022/05/04 13:47:49;;;;;;;5.42;4.35;;;;;;;22.61;29.61;100318.45;2083432;85;28087;-64
2022/05/04 13:54:12;;;;;;;8.48;4.25;;;;;;;22.48;29.42;100321.19;2092643;84;33721;-64
2022/05/04 13:57:14;;;;;;;8.05;4.30;;;;;;;22.36;29.42;100316.41;2118116;84;30689;-63
2022/05/04 14:00:18;;;;;;;5.55;3.85;;;;;;;22.24;29.42;100317.99;2114291;84;28181;-64
2022/05/04 14:03:20;;;;;;;5.40;4.03;;;;;;;22.20;29.53;100315.73;2114339;84;28730;-62
2022/05/04 14:06:22;;;;;;;4.40;3.70;;;;;;;22.21;29.80;100314.72;2113819;84;31143;-64
2022/05/04 14:09:27;;;;;;;9.10;4.35;;;;;;;22.19;29.73;100313.48;2109740;84;33343;-65
2022/05/04 14:12:29;;;;;;;5.83;3.87;;;;;;;22.11;29.49;100313.41;2083606;85;29346;-63
2022/05/04 14:15:31;;;;;;;5.20;3.70;;;;;;;22.06;29.78;100309.77;2083429;85;27521;-62
2022/05/04 14:18:35;;;;;;;4.37;3.98;;;;;;;22.03;29.90;100311.43;2083460;85;28710;-63
2022/05/04 14:21:37;;;;;;;4.28;3.42;;;;;;;22.00;29.95;100311.72;2087962;84;31033;-61
2022/05/04 14:24:39;;;;;;;6.65;3.67;;;;;;;21.97;29.91;100312.02;2086503;84;33842;-62
2022/05/04 14:27:47;;;;;;;6.08;3.80;;;;;;;21.90;29.89;100311.77;2086785;85;30686;-62
2022/05/04 14:30:47;;;;;;;4.85;4.12;;;;;;;21.82;29.89;100305.70;2085524;84;27704;-62
2022/05/04 14:33:49;;;;;;;8.98;3.77;;;;;;;21.79;29.81;100302.42;2089919;84;29899;-63
2022/05/04 14:36:51;;;;;;;11.73;3.77;;;;;;;21.80;30.10;100306.86;2098191;84;31113;-65
2022/05/04 14:39:54;;;;;;;6.75;4.12;;;;;;;21.78;30.13;100306.16;2097711;84;33794;-62
2022/05/04 14:42:57;;;;;;;6.10;3.25;;;;;;;21.80;30.26;100310.44;2098044;84;30459;-63
2022/05/04 14:46:00;;;;;;;5.72;3.60;;;;;;;21.84;30.01;100315.95;2098908;84;27619;-63
2022/05/04 14:49:02;;;;;;;7.35;3.92;;;;;;;21.82;30.23;100308.94;2102619;84;29556;-63
2022/05/04 14:52:06;;;;;;;8.43;3.62;;;;;;;21.83;30.28;100305.20;2100621;84;31159;-63
2022/05/04 14:55:09;;;;;;;5.47;4.03;;;;;;;21.82;30.12;100307.58;2101132;84;32997;-63